sensor_id;sensor_type;location;lat;lon;timestamp;pressure;altitude;pressure_sealevel;temperature;humidity
2000;BME280;1001;48.87406500;9.59633600;2023-04-05T00:01:49;95504.72;;;-0.52;75.54
2000;BME280;1001;48.87406500;9.59633600;2023-04-05T00:04:17;95505.16;;;-0.57;75.44
2000;BME280;1001;48.87406500;9.59633600;2023-04-05T00:06:46;95500.97;;;-0.58;75.48
2000;BME280;1001;48.87406500;9.59633600;2023-04-05T00:09:16;95502.28;;;-0.54;75.94
2000;BME280;1001;48.87406500;9.59633600;2023-04-05T00:11:43;95505.22;;;-0.49;75.70
2000;BME280;1001;48.87406500;9.59633600;2023-04-05T00:14:11;95505.00;;;-0.55;75.71
2000;BME280;1001;48.87406500;9.59633600;2023-04-05T00:16:37;95502.16;;;-0.52;75.67
2000;BME280;1001;48.87406500;9.59633600;2023-04-05T00:19:04;95498.13;;;-0.55;75.56
2000;BME280;1001;48.87406500;9.59633600;2023-04-05T00:21:31;95491.53;;;-0.57;75.88
2000;BME280;1001;48.87406500;9.59633600;2023-04-05T00:23:58;95497.31;;;-0.55;75.84
2000;BME280;1001;48.87406500;9.59633600;2023-04-05T00:26:25;95491.81;;;-0.60;75.71
2000;BME280;1001;48.87406500;9.59633600;2023-04-05T00:28:52;95490.72;;;-0.58;76.02
2000;BME280;1001;48.87406500;9.59633600;2023-04-05T00:31:20;95488.88;;;-0.65;75.65
2000;BME280;1001;48.87406500;9.59633600;2023-04-05T00:33:48;95473.19;;;-0.62;76.10
2000;BME280;1001;48.87406500;9.59633600;2023-04-05T00:36:15;95474.13;;;-0.63;76.13
2000;BME280;1001;48.87406500;9.59633600;2023-04-05T00:38:43;95469.06;;;-0.55;75.62
2000;BME280;1001;48.87406500;9.59633600;2023-04-05T00:41:11;95472.28;;;-0.53;75.85
2000;BME280;1001;48.87406500;9.59633600;2023-04-05T00:43:38;95475.00;;;-0.55;76.42
2000;BME280;1001;48.87406500;9.59633600;2023-04-05T00:46:06;95468.50;;;-0.67;76.19
2000;BME280;1001;48.87406500;9.59633600;2023-04-05T00:48:34;95463.66;;;-0.70;76.75
2000;BME280;1001;48.87406500;9.59633600;2023-04-05T00:51:01;95463.81;;;-0.72;76.98
2000;BME280;1001;48.87406500;9.59633600;2023-04-05T00:53:28;95463.19;;;-0.74;76.73
2000;BME280;1001;48.87406500;9.59633600;2023-04-05T00:55:56;95463.97;;;-0.73;76.91
2000;BME280;1001;48.87406500;9.59633600;2023-04-05T00:58:23;95457.81;;;-0.80;77.57
2000;BME280;1001;48.87406500;9.59633600;2023-04-05T01:00:55;95453.19;;;-0.77;77.55
2000;BME280;1001;48.87406500;9.59633600;2023-04-05T01:03:25;95457.38;;;-0.76;77.14
2000;BME280;1001;48.87406500;9.59633600;2023-04-05T01:06:03;95451.75;;;-0.79;77.57
2000;BME280;1001;48.87406500;9.59633600;2023-04-05T01:08:41;95447.41;;;-0.79;77.76
2000;BME280;1001;48.87406500;9.59633600;2023-04-05T01:11:11;95444.50;;;-0.84;77.60
2000;BME280;1001;48.87406500;9.59633600;2023-04-05T01:13:38;95441.28;;;-0.86;78.48
2000;BME280;1001;48.87406500;9.59633600;2023-04-05T01:16:05;95439.47;;;-0.93;79.14
2000;BME280;1001;48.87406500;9.59633600;2023-04-05T01:18:32;95431.59;;;-0.92;78.61
2000;BME280;1001;48.87406500;9.59633600;2023-04-05T01:21:17;95427.72;;;-0.96;78.94
2000;BME280;1001;48.87406500;9.59633600;2023-04-05T01:23:58;95428.63;;;-1.05;78.89
2000;BME280;1001;48.87406500;9.59633600;2023-04-05T01:26:48;95424.03;;;-1.19;79.86
2000;BME280;1001;48.87406500;9.59633600;2023-04-05T01:29:40;95423.06;;;-1.18;80.14
2000;BME280;1001;48.87406500;9.59633600;2023-04-05T01:32:17;95424.09;;;-1.11;79.86
2000;BME280;1001;48.87406500;9.59633600;2023-04-05T01:34:49;95422.69;;;-1.05;79.98
2000;BME280;1001;48.87406500;9.59633600;2023-04-05T01:37:19;95418.88;;;-1.01;79.22
2000;BME280;1001;48.87406500;9.59633600;2023-04-05T01:39:49;95416.94;;;-0.99;79.54
2000;BME280;1001;48.87406500;9.59633600;2023-04-05T01:42:22;95412.34;;;-0.96;78.73
2000;BME280;1001;48.87406500;9.59633600;2023-04-05T01:44:51;95410.56;;;-0.95;78.56
2000;BME280;1001;48.87406500;9.59633600;2023-04-05T01:47:17;95408.91;;;-1.04;80.22
2000;BME280;1001;48.87406500;9.59633600;2023-04-05T01:49:44;95410.75;;;-1.14;80.27
2000;BME280;1001;48.87406500;9.59633600;2023-04-05T01:52:11;95399.88;;;-1.08;80.12
2000;BME280;1001;48.87406500;9.59633600;2023-04-05T01:54:37;95399.78;;;-0.99;79.31
2000;BME280;1001;48.87406500;9.59633600;2023-04-05T01:57:04;95406.91;;;-0.93;79.70
2000;BME280;1001;48.87406500;9.59633600;2023-04-05T01:59:31;95397.13;;;-0.89;79.25
2000;BME280;1001;48.87406500;9.59633600;2023-04-05T02:01:59;95398.59;;;-0.87;79.11
2000;BME280;1001;48.87406500;9.59633600;2023-04-05T02:04:26;95388.28;;;-0.95;78.62
2000;BME280;1001;48.87406500;9.59633600;2023-04-05T02:06:52;95395.03;;;-0.94;79.54
2000;BME280;1001;48.87406500;9.59633600;2023-04-05T02:09:19;95399.22;;;-0.93;78.51
2000;BME280;1001;48.87406500;9.59633600;2023-04-05T02:11:45;95395.47;;;-0.98;78.89
2000;BME280;1001;48.87406500;9.59633600;2023-04-05T02:14:12;95392.09;;;-0.99;79.32
2000;BME280;1001;48.87406500;9.59633600;2023-04-05T02:16:39;95402.06;;;-0.96;79.23
2000;BME280;1001;48.87406500;9.59633600;2023-04-05T02:19:07;95401.25;;;-0.96;79.00
2000;BME280;1001;48.87406500;9.59633600;2023-04-05T02:21:33;95396.56;;;-1.01;79.30
2000;BME280;1001;48.87406500;9.59633600;2023-04-05T02:24:01;95389.84;;;-1.02;78.99
2000;BME280;1001;48.87406500;9.59633600;2023-04-05T02:26:27;95398.97;;;-0.99;79.40
2000;BME280;1001;48.87406500;9.59633600;2023-04-05T02:28:54;95395.00;;;-1.02;79.36
2000;BME280;1001;48.87406500;9.59633600;2023-04-05T02:31:20;95389.50;;;-1.07;79.45
2000;BME280;1001;48.87406500;9.59633600;2023-04-05T02:33:47;95392.56;;;-1.03;79.29
2000;BME280;1001;48.87406500;9.59633600;2023-04-05T02:36:15;95388.22;;;-1.03;79.11
2000;BME280;1001;48.87406500;9.59633600;2023-04-05T02:38:42;95390.34;;;-0.98;79.13
2000;BME280;1001;48.87406500;9.59633600;2023-04-05T02:41:09;95383.16;;;-0.95;79.16
2000;BME280;1001;48.87406500;9.59633600;2023-04-05T02:43:37;95375.41;;;-1.03;78.91
2000;BME280;1001;48.87406500;9.59633600;2023-04-05T02:46:03;95387.31;;;-0.94;78.96
2000;BME280;1001;48.87406500;9.59633600;2023-04-05T02:48:30;95385.38;;;-1.00;79.15
2000;BME280;1001;48.87406500;9.59633600;2023-04-05T02:50:57;95384.41;;;-0.99;79.25
2000;BME280;1001;48.87406500;9.59633600;2023-04-05T02:53:25;95381.34;;;-1.02;78.70
2000;BME280;1001;48.87406500;9.59633600;2023-04-05T02:55:52;95376.69;;;-0.99;78.87
2000;BME280;1001;48.87406500;9.59633600;2023-04-05T02:58:19;95379.91;;;-0.97;78.91
2000;BME280;1001;48.87406500;9.59633600;2023-04-05T03:00:46;95369.66;;;-0.97;78.35
2000;BME280;1001;48.87406500;9.59633600;2023-04-05T03:03:16;95371.44;;;-0.97;78.95
2000;BME280;1001;48.87406500;9.59633600;2023-04-05T03:05:46;95370.28;;;-1.03;78.67
2000;BME280;1001;48.87406500;9.59633600;2023-04-05T03:08:13;95365.59;;;-1.07;78.22
2000;BME280;1001;48.87406500;9.59633600;2023-04-05T03:10:45;95371.66;;;-1.08;78.22
2000;BME280;1001;48.87406500;9.59633600;2023-04-05T03:13:12;95363.75;;;-0.97;78.31
2000;BME280;1001;48.87406500;9.59633600;2023-04-05T03:15:40;95362.94;;;-0.98;77.62
2000;BME280;1001;48.87406500;9.59633600;2023-04-05T03:18:07;95364.78;;;-1.08;78.78
2000;BME280;1001;48.87406500;9.59633600;2023-04-05T03:20:35;95362.50;;;-1.11;78.28
2000;BME280;1001;48.87406500;9.59633600;2023-04-05T03:23:05;95354.47;;;-1.16;78.83
2000;BME280;1001;48.87406500;9.59633600;2023-04-05T03:25:33;95358.19;;;-1.10;78.68
2000;BME280;1001;48.87406500;9.59633600;2023-04-05T03:28:02;95356.72;;;-1.13;78.38
2000;BME280;1001;48.87406500;9.59633600;2023-04-05T03:30:30;95367.28;;;-1.16;78.97
2000;BME280;1001;48.87406500;9.59633600;2023-04-05T03:32:56;95366.50;;;-1.16;79.02
2000;BME280;1001;48.87406500;9.59633600;2023-04-05T03:35:26;95368.25;;;-1.17;79.07
2000;BME280;1001;48.87406500;9.59633600;2023-04-05T03:37:52;95363.41;;;-1.20;78.34
2000;BME280;1001;48.87406500;9.59633600;2023-04-05T03:40:19;95358.00;;;-1.17;78.58
2000;BME280;1001;48.87406500;9.59633600;2023-04-05T03:42:45;95367.09;;;-1.22;78.11
2000;BME280;1001;48.87406500;9.59633600;2023-04-05T03:45:14;95361.47;;;-1.26;78.73
2000;BME280;1001;48.87406500;9.59633600;2023-04-05T03:47:41;95352.44;;;-1.30;79.20
2000;BME280;1001;48.87406500;9.59633600;2023-04-05T03:50:08;95348.75;;;-1.35;78.86
2000;BME280;1001;48.87406500;9.59633600;2023-04-05T03:52:35;95350.88;;;-1.49;78.70
2000;BME280;1001;48.87406500;9.59633600;2023-04-05T03:55:02;95357.41;;;-1.54;79.71
2000;BME280;1001;48.87406500;9.59633600;2023-04-05T03:57:28;95352.88;;;-1.60;79.34
2000;BME280;1001;48.87406500;9.59633600;2023-04-05T03:59:55;95360.38;;;-1.41;79.09
2000;BME280;1001;48.87406500;9.59633600;2023-04-05T04:02:23;95353.88;;;-1.35;78.90
2000;BME280;1001;48.87406500;9.59633600;2023-04-05T04:04:50;95355.16;;;-1.31;78.30
2000;BME280;1001;48.87406500;9.59633600;2023-04-05T04:07:17;95361.75;;;-1.29;78.39
2000;BME280;1001;48.87406500;9.59633600;2023-04-05T04:09:44;95361.75;;;-1.29;78.18
2000;BME280;1001;48.87406500;9.59633600;2023-04-05T04:12:11;95358.84;;;-1.34;78.05
2000;BME280;1001;48.87406500;9.59633600;2023-04-05T04:14:37;95352.41;;;-1.56;78.45
2000;BME280;1001;48.87406500;9.59633600;2023-04-05T04:17:04;95358.59;;;-1.66;79.42
2000;BME280;1001;48.87406500;9.59633600;2023-04-05T04:19:32;95354.50;;;-1.77;80.21
2000;BME280;1001;48.87406500;9.59633600;2023-04-05T04:21:58;95359.63;;;-1.77;79.90
2000;BME280;1001;48.87406500;9.59633600;2023-04-05T04:24:25;95357.78;;;-1.67;80.41
2000;BME280;1001;48.87406500;9.59633600;2023-04-05T04:26:52;95359.63;;;-1.77;80.57
2000;BME280;1001;48.87406500;9.59633600;2023-04-05T04:29:18;95361.09;;;-1.74;79.08
2000;BME280;1001;48.87406500;9.59633600;2023-04-05T04:31:55;95364.53;;;-1.83;80.16
2000;BME280;1001;48.87406500;9.59633600;2023-04-05T04:34:22;95364.00;;;-1.87;80.96
2000;BME280;1001;48.87406500;9.59633600;2023-04-05T04:36:51;95360.16;;;-1.73;80.41
2000;BME280;1001;48.87406500;9.59633600;2023-04-05T04:39:25;95349.56;;;-1.70;79.29
2000;BME280;1001;48.87406500;9.59633600;2023-04-05T04:41:52;95356.47;;;-1.88;80.22
2000;BME280;1001;48.87406500;9.59633600;2023-04-05T04:44:20;95357.25;;;-1.70;79.61
2000;BME280;1001;48.87406500;9.59633600;2023-04-05T04:46:52;95360.94;;;-1.55;78.54
2000;BME280;1001;48.87406500;9.59633600;2023-04-05T04:49:19;95361.03;;;-1.39;77.87
2000;BME280;1001;48.87406500;9.59633600;2023-04-05T04:51:46;95356.91;;;-1.32;77.48
2000;BME280;1001;48.87406500;9.59633600;2023-04-05T04:54:14;95356.63;;;-1.29;76.88
2000;BME280;1001;48.87406500;9.59633600;2023-04-05T04:56:45;95360.94;;;-1.29;76.69
2000;BME280;1001;48.87406500;9.59633600;2023-04-05T04:59:11;95359.03;;;-1.27;76.26
2000;BME280;1001;48.87406500;9.59633600;2023-04-05T05:01:38;95370.19;;;-1.37;77.06
2000;BME280;1001;48.87406500;9.59633600;2023-04-05T05:04:05;95364.13;;;-1.35;76.94
2000;BME280;1001;48.87406500;9.59633600;2023-04-05T05:06:31;95367.69;;;-1.28;76.83
2000;BME280;1001;48.87406500;9.59633600;2023-04-05T05:08:58;95368.34;;;-1.26;76.81
2000;BME280;1001;48.87406500;9.59633600;2023-04-05T05:11:26;95365.53;;;-1.41;77.48
2000;BME280;1001;48.87406500;9.59633600;2023-04-05T05:13:53;95365.25;;;-1.56;78.66
2000;BME280;1001;48.87406500;9.59633600;2023-04-05T05:16:21;95359.41;;;-1.66;79.36
2000;BME280;1001;48.87406500;9.59633600;2023-04-05T05:18:49;95367.91;;;-1.40;78.13
2000;BME280;1001;48.87406500;9.59633600;2023-04-05T05:21:16;95367.88;;;-1.48;77.90
2000;BME280;1001;48.87406500;9.59633600;2023-04-05T05:23:43;95369.28;;;-1.53;78.48
2000;BME280;1001;48.87406500;9.59633600;2023-04-05T05:26:11;95374.47;;;-1.45;77.99
2000;BME280;1001;48.87406500;9.59633600;2023-04-05T05:28:40;95363.47;;;-1.38;77.36
2000;BME280;1001;48.87406500;9.59633600;2023-04-05T05:31:06;95358.53;;;-1.31;76.85
2000;BME280;1001;48.87406500;9.59633600;2023-04-05T05:33:33;95361.91;;;-1.30;77.66
2000;BME280;1001;48.87406500;9.59633600;2023-04-05T05:35:59;95370.66;;;-1.15;77.85
2000;BME280;1001;48.87406500;9.59633600;2023-04-05T05:38:27;95368.34;;;-1.01;76.48
2000;BME280;1001;48.87406500;9.59633600;2023-04-05T05:40:54;95362.38;;;-1.09;76.16
2000;BME280;1001;48.87406500;9.59633600;2023-04-05T05:43:22;95369.25;;;-1.10;76.78
2000;BME280;1001;48.87406500;9.59633600;2023-04-05T05:45:50;95368.63;;;-1.12;77.37
2000;BME280;1001;48.87406500;9.59633600;2023-04-05T05:48:16;95374.94;;;-0.98;76.68
2000;BME280;1001;48.87406500;9.59633600;2023-04-05T05:50:43;95372.63;;;-0.84;75.29
2000;BME280;1001;48.87406500;9.59633600;2023-04-05T05:53:13;95368.50;;;-0.77;74.46
2000;BME280;1001;48.87406500;9.59633600;2023-04-05T05:55:40;95376.91;;;-0.58;74.16
2000;BME280;1001;48.87406500;9.59633600;2023-04-05T05:58:07;95382.22;;;-0.52;73.71
2000;BME280;1001;48.87406500;9.59633600;2023-04-05T06:00:33;95379.53;;;-0.42;74.10
2000;BME280;1001;48.87406500;9.59633600;2023-04-05T06:03:02;95381.03;;;-0.32;72.95
2000;BME280;1001;48.87406500;9.59633600;2023-04-05T06:05:28;95378.03;;;-0.19;72.57
2000;BME280;1001;48.87406500;9.59633600;2023-04-05T06:07:55;95378.34;;;-0.14;72.58
2000;BME280;1001;48.87406500;9.59633600;2023-04-05T06:10:22;95370.19;;;-0.02;71.43
2000;BME280;1001;48.87406500;9.59633600;2023-04-05T06:12:50;95381.16;;;0.17;71.79
2000;BME280;1001;48.87406500;9.59633600;2023-04-05T06:15:16;95377.00;;;0.32;69.96
2000;BME280;1001;48.87406500;9.59633600;2023-04-05T06:17:43;95374.59;;;0.46;70.05
2000;BME280;1001;48.87406500;9.59633600;2023-04-05T06:20:11;95378.94;;;0.46;71.11
2000;BME280;1001;48.87406500;9.59633600;2023-04-05T06:22:38;95380.06;;;0.67;68.25
2000;BME280;1001;48.87406500;9.59633600;2023-04-05T06:25:06;95387.47;;;0.87;68.49
2000;BME280;1001;48.87406500;9.59633600;2023-04-05T06:27:33;95383.28;;;0.94;66.26
2000;BME280;1001;48.87406500;9.59633600;2023-04-05T06:30:00;95385.19;;;1.16;65.37
2000;BME280;1001;48.87406500;9.59633600;2023-04-05T06:32:27;95389.59;;;1.46;65.73
2000;BME280;1001;48.87406500;9.59633600;2023-04-05T06:34:53;95380.19;;;1.69;67.06
2000;BME280;1001;48.87406500;9.59633600;2023-04-05T06:37:21;95391.63;;;2.05;66.54
2000;BME280;1001;48.87406500;9.59633600;2023-04-05T06:39:48;95390.03;;;2.50;66.29
2000;BME280;1001;48.87406500;9.59633600;2023-04-05T06:42:18;95386.88;;;2.85;64.61
2000;BME280;1001;48.87406500;9.59633600;2023-04-05T06:44:44;95390.03;;;2.95;63.04
2000;BME280;1001;48.87406500;9.59633600;2023-04-05T06:47:13;95395.47;;;3.15;63.13
2000;BME280;1001;48.87406500;9.59633600;2023-04-05T06:49:40;95391.22;;;3.22;61.75
2000;BME280;1001;48.87406500;9.59633600;2023-04-05T06:52:07;95395.53;;;3.59;61.84
2000;BME280;1001;48.87406500;9.59633600;2023-04-05T06:54:36;95392.81;;;3.81;60.80
2000;BME280;1001;48.87406500;9.59633600;2023-04-05T06:57:03;95402.00;;;3.98;60.45
2000;BME280;1001;48.87406500;9.59633600;2023-04-05T06:59:29;95399.53;;;4.26;60.58
2000;BME280;1001;48.87406500;9.59633600;2023-04-05T07:01:58;95403.19;;;4.32;57.84
2000;BME280;1001;48.87406500;9.59633600;2023-04-05T07:04:26;95397.31;;;4.23;58.93
2000;BME280;1001;48.87406500;9.59633600;2023-04-05T07:07:00;95397.72;;;4.62;58.91
2000;BME280;1001;48.87406500;9.59633600;2023-04-05T07:09:27;95406.09;;;4.64;58.80
2000;BME280;1001;48.87406500;9.59633600;2023-04-05T07:11:56;95391.31;;;4.58;55.50
2000;BME280;1001;48.87406500;9.59633600;2023-04-05T07:14:23;95406.66;;;4.60;53.77
2000;BME280;1001;48.87406500;9.59633600;2023-04-05T07:16:50;95408.28;;;4.82;54.80
2000;BME280;1001;48.87406500;9.59633600;2023-04-05T07:19:16;95397.91;;;4.82;53.74
2000;BME280;1001;48.87406500;9.59633600;2023-04-05T07:21:43;95402.53;;;5.08;52.10
2000;BME280;1001;48.87406500;9.59633600;2023-04-05T07:24:10;95402.28;;;5.03;51.04
2000;BME280;1001;48.87406500;9.59633600;2023-04-05T07:26:38;95404.44;;;4.99;51.31
2000;BME280;1001;48.87406500;9.59633600;2023-04-05T07:29:08;95407.34;;;5.11;51.96
2000;BME280;1001;48.87406500;9.59633600;2023-04-05T07:31:34;95409.25;;;5.02;51.12
2000;BME280;1001;48.87406500;9.59633600;2023-04-05T07:34:01;95405.19;;;5.21;50.38
2000;BME280;1001;48.87406500;9.59633600;2023-04-05T07:36:28;95410.06;;;5.30;51.31
2000;BME280;1001;48.87406500;9.59633600;2023-04-05T07:38:56;95407.81;;;5.48;52.28
2000;BME280;1001;48.87406500;9.59633600;2023-04-05T07:41:23;95407.41;;;5.51;50.00
2000;BME280;1001;48.87406500;9.59633600;2023-04-05T07:43:50;95405.69;;;5.03;48.42
2000;BME280;1001;48.87406500;9.59633600;2023-04-05T07:46:18;95416.00;;;5.24;50.69
2000;BME280;1001;48.87406500;9.59633600;2023-04-05T07:48:46;95418.47;;;5.11;48.21
2000;BME280;1001;48.87406500;9.59633600;2023-04-05T07:51:13;95418.00;;;5.22;47.19
2000;BME280;1001;48.87406500;9.59633600;2023-04-05T07:53:40;95409.13;;;5.10;47.30
2000;BME280;1001;48.87406500;9.59633600;2023-04-05T07:56:08;95406.28;;;5.05;48.11
2000;BME280;1001;48.87406500;9.59633600;2023-04-05T07:58:36;95409.56;;;4.93;46.93
2000;BME280;1001;48.87406500;9.59633600;2023-04-05T08:01:06;95416.28;;;5.08;47.40
2000;BME280;1001;48.87406500;9.59633600;2023-04-05T08:03:35;95412.88;;;5.08;49.34
2000;BME280;1001;48.87406500;9.59633600;2023-04-05T08:06:10;95411.63;;;5.25;46.72
2000;BME280;1001;48.87406500;9.59633600;2023-04-05T08:08:37;95406.28;;;5.33;47.27
2000;BME280;1001;48.87406500;9.59633600;2023-04-05T08:11:05;95418.16;;;5.21;45.93
2000;BME280;1001;48.87406500;9.59633600;2023-04-05T08:13:32;95412.69;;;5.09;44.82
2000;BME280;1001;48.87406500;9.59633600;2023-04-05T08:15:59;95409.06;;;5.04;45.28
2000;BME280;1001;48.87406500;9.59633600;2023-04-05T08:18:26;95412.94;;;5.42;46.58
2000;BME280;1001;48.87406500;9.59633600;2023-04-05T08:20:55;95406.47;;;5.59;47.15
2000;BME280;1001;48.87406500;9.59633600;2023-04-05T08:23:22;95413.59;;;5.50;44.05
2000;BME280;1001;48.87406500;9.59633600;2023-04-05T08:25:49;95408.25;;;5.59;45.82
2000;BME280;1001;48.87406500;9.59633600;2023-04-05T08:28:16;95413.91;;;5.69;47.65
2000;BME280;1001;48.87406500;9.59633600;2023-04-05T08:30:43;95419.75;;;6.11;47.81
2000;BME280;1001;48.87406500;9.59633600;2023-04-05T08:33:11;95410.53;;;6.63;47.35
2000;BME280;1001;48.87406500;9.59633600;2023-04-05T08:35:38;95414.47;;;6.39;46.90
2000;BME280;1001;48.87406500;9.59633600;2023-04-05T08:38:06;95409.47;;;5.90;46.35
2000;BME280;1001;48.87406500;9.59633600;2023-04-05T08:40:39;95412.47;;;6.41;49.37
2000;BME280;1001;48.87406500;9.59633600;2023-04-05T08:43:10;95415.13;;;6.67;46.50
2000;BME280;1001;48.87406500;9.59633600;2023-04-05T08:45:43;95414.28;;;6.41;44.89
2000;BME280;1001;48.87406500;9.59633600;2023-04-05T08:48:11;95411.09;;;6.45;44.47
2000;BME280;1001;48.87406500;9.59633600;2023-04-05T08:50:38;95413.34;;;6.68;46.13
2000;BME280;1001;48.87406500;9.59633600;2023-04-05T08:53:07;95410.50;;;6.43;44.10
2000;BME280;1001;48.87406500;9.59633600;2023-04-05T08:55:36;95415.38;;;6.18;44.63
2000;BME280;1001;48.87406500;9.59633600;2023-04-05T08:58:07;95413.81;;;6.24;44.02
2000;BME280;1001;48.87406500;9.59633600;2023-04-05T09:00:36;95406.63;;;6.26;45.02
2000;BME280;1001;48.87406500;9.59633600;2023-04-05T09:03:04;95418.47;;;6.42;45.04
2000;BME280;1001;48.87406500;9.59633600;2023-04-05T09:05:32;95413.13;;;6.63;44.01
2000;BME280;1001;48.87406500;9.59633600;2023-04-05T09:08:02;95424.09;;;6.52;45.83
2000;BME280;1001;48.87406500;9.59633600;2023-04-05T09:10:31;95418.16;;;6.84;45.24
2000;BME280;1001;48.87406500;9.59633600;2023-04-05T09:12:58;95413.78;;;6.84;44.61
2000;BME280;1001;48.87406500;9.59633600;2023-04-05T09:15:28;95414.59;;;6.92;43.71
2000;BME280;1001;48.87406500;9.59633600;2023-04-05T09:17:55;95426.56;;;6.79;42.46
2000;BME280;1001;48.87406500;9.59633600;2023-04-05T09:20:22;95429.75;;;6.81;44.12
2000;BME280;1001;48.87406500;9.59633600;2023-04-05T09:22:51;95428.81;;;7.02;45.74
2000;BME280;1001;48.87406500;9.59633600;2023-04-05T09:25:34;95427.19;;;6.95;43.68
2000;BME280;1001;48.87406500;9.59633600;2023-04-05T09:28:03;95431.41;;;7.22;44.42
2000;BME280;1001;48.87406500;9.59633600;2023-04-05T09:30:31;95424.00;;;7.38;42.75
2000;BME280;1001;48.87406500;9.59633600;2023-04-05T09:32:58;95416.16;;;6.79;42.79
2000;BME280;1001;48.87406500;9.59633600;2023-04-05T09:35:27;95423.56;;;6.96;42.63
2000;BME280;1001;48.87406500;9.59633600;2023-04-05T09:37:55;95422.41;;;7.18;41.72
2000;BME280;1001;48.87406500;9.59633600;2023-04-05T09:40:22;95414.16;;;6.68;42.35
2000;BME280;1001;48.87406500;9.59633600;2023-04-05T09:42:50;95424.09;;;6.52;44.55
2000;BME280;1001;48.87406500;9.59633600;2023-04-05T09:45:18;95417.56;;;6.69;46.03
2000;BME280;1001;48.87406500;9.59633600;2023-04-05T09:47:53;95407.66;;;6.32;43.55
2000;BME280;1001;48.87406500;9.59633600;2023-04-05T09:50:20;95416.88;;;6.41;44.69
2000;BME280;1001;48.87406500;9.59633600;2023-04-05T09:52:47;95421.34;;;6.73;43.88
2000;BME280;1001;48.87406500;9.59633600;2023-04-05T09:55:25;95420.00;;;6.90;43.04
2000;BME280;1001;48.87406500;9.59633600;2023-04-05T09:57:56;95416.41;;;7.37;44.77
2000;BME280;1001;48.87406500;9.59633600;2023-04-05T10:00:22;95414.00;;;7.62;44.56
2000;BME280;1001;48.87406500;9.59633600;2023-04-05T10:02:52;95408.41;;;7.32;42.36
2000;BME280;1001;48.87406500;9.59633600;2023-04-05T10:05:22;95411.81;;;7.39;43.50
2000;BME280;1001;48.87406500;9.59633600;2023-04-05T10:07:51;95411.78;;;7.59;44.15
2000;BME280;1001;48.87406500;9.59633600;2023-04-05T10:10:20;95412.19;;;7.36;42.33
2000;BME280;1001;48.87406500;9.59633600;2023-04-05T10:12:49;95407.22;;;7.28;41.71
2000;BME280;1001;48.87406500;9.59633600;2023-04-05T10:15:17;95404.59;;;6.95;42.08
2000;BME280;1001;48.87406500;9.59633600;2023-04-05T10:17:50;95402.81;;;7.02;44.29
2000;BME280;1001;48.87406500;9.59633600;2023-04-05T10:20:20;95402.41;;;6.79;42.56
2000;BME280;1001;48.87406500;9.59633600;2023-04-05T10:22:59;95400.13;;;6.50;42.79
2000;BME280;1001;48.87406500;9.59633600;2023-04-05T10:25:43;95396.69;;;6.36;45.00
2000;BME280;1001;48.87406500;9.59633600;2023-04-05T10:28:17;95399.63;;;7.26;45.90
2000;BME280;1001;48.87406500;9.59633600;2023-04-05T10:30:50;95394.75;;;7.76;44.43
2000;BME280;1001;48.87406500;9.59633600;2023-04-05T10:33:21;95387.59;;;7.51;43.02
2000;BME280;1001;48.87406500;9.59633600;2023-04-05T10:35:59;95389.19;;;6.94;42.45
2000;BME280;1001;48.87406500;9.59633600;2023-04-05T10:38:41;95391.41;;;6.90;44.87
2000;BME280;1001;48.87406500;9.59633600;2023-04-05T10:41:12;95391.63;;;7.21;42.68
2000;BME280;1001;48.87406500;9.59633600;2023-04-05T10:43:40;95389.41;;;7.18;41.68
2000;BME280;1001;48.87406500;9.59633600;2023-04-05T10:46:09;95383.78;;;7.47;43.84
2000;BME280;1001;48.87406500;9.59633600;2023-04-05T10:48:43;95399.38;;;7.74;43.94
2000;BME280;1001;48.87406500;9.59633600;2023-04-05T10:51:12;95385.38;;;7.48;44.66
2000;BME280;1001;48.87406500;9.59633600;2023-04-05T10:53:39;95394.78;;;7.36;41.95
2000;BME280;1001;48.87406500;9.59633600;2023-04-05T10:56:07;95389.34;;;7.77;41.87
2000;BME280;1001;48.87406500;9.59633600;2023-04-05T10:58:34;95383.50;;;7.95;42.73
2000;BME280;1001;48.87406500;9.59633600;2023-04-05T11:01:02;95382.25;;;8.04;42.22
2000;BME280;1001;48.87406500;9.59633600;2023-04-05T11:03:46;95385.28;;;7.94;42.90
2000;BME280;1001;48.87406500;9.59633600;2023-04-05T11:06:18;95388.09;;;7.86;41.76
2000;BME280;1001;48.87406500;9.59633600;2023-04-05T11:08:46;95395.75;;;7.68;43.16
2000;BME280;1001;48.87406500;9.59633600;2023-04-05T11:11:15;95391.84;;;8.10;40.75
2000;BME280;1001;48.87406500;9.59633600;2023-04-05T11:13:50;95389.59;;;8.27;40.40
2000;BME280;1001;48.87406500;9.59633600;2023-04-05T11:16:17;95377.97;;;8.29;41.97
2000;BME280;1001;48.87406500;9.59633600;2023-04-05T11:18:46;95368.56;;;8.15;41.26
2000;BME280;1001;48.87406500;9.59633600;2023-04-05T11:21:20;95372.44;;;7.99;42.88
2000;BME280;1001;48.87406500;9.59633600;2023-04-05T11:24:04;95381.97;;;7.61;41.68
2000;BME280;1001;48.87406500;9.59633600;2023-04-05T11:26:53;95375.75;;;7.69;39.74
2000;BME280;1001;48.87406500;9.59633600;2023-04-05T11:29:44;95371.78;;;8.17;44.16
2000;BME280;1001;48.87406500;9.59633600;2023-04-05T11:32:11;95360.72;;;8.35;43.77
2000;BME280;1001;48.87406500;9.59633600;2023-04-05T11:34:42;95359.88;;;8.41;40.69
2000;BME280;1001;48.87406500;9.59633600;2023-04-05T11:37:09;95373.44;;;8.56;42.01
2000;BME280;1001;48.87406500;9.59633600;2023-04-05T11:39:36;95356.03;;;8.43;40.30
2000;BME280;1001;48.87406500;9.59633600;2023-04-05T11:42:04;95356.31;;;8.66;40.58
2000;BME280;1001;48.87406500;9.59633600;2023-04-05T11:44:42;95346.16;;;8.58;41.38
2000;BME280;1001;48.87406500;9.59633600;2023-04-05T11:47:10;95352.53;;;8.18;41.33
2000;BME280;1001;48.87406500;9.59633600;2023-04-05T11:49:37;95346.72;;;8.22;41.69
2000;BME280;1001;48.87406500;9.59633600;2023-04-05T11:52:13;95345.50;;;8.25;41.20
2000;BME280;1001;48.87406500;9.59633600;2023-04-05T11:54:40;95346.31;;;8.26;41.39
2000;BME280;1001;48.87406500;9.59633600;2023-04-05T11:57:14;95344.63;;;8.38;43.15